Time;durP1;ratioP1;P1;durP2;ratioP2;P2;SDS_P1;SDS_P2;PMS_P1;PMS_P2;Temp;Humidity;BMP_temperature;BMP_pressure;BME280_temperature;BME280_humidity;BME280_pressure;Samples;Min_cycle;Max_cycle;Signal;HPM_P1;HPM_P2
2021/03/18 00:00:45;;;;;;;6.35;4.32;;;1.80;99.90;;;;;;5027336;28;20089;-77
2021/03/18 00:03:18;;;;;;;6.18;3.75;;;1.90;99.90;;;;;;5023954;28;20123;-77
2021/03/18 00:05:44;;;;;;;5.82;4.13;;;2.00;99.90;;;;;;5025281;28;20085;-77
2021/03/18 00:08:10;;;;;;;6.75;3.53;;;1.90;99.90;;;;;;5025302;28;20105;-77
2021/03/18 00:10:36;;;;;;;4.30;3.42;;;1.90;99.90;;;;;;5026413;28;20145;-77
2021/03/18 00:13:04;;;;;;;3.97;3.03;;;2.00;99.90;;;;;;5021561;28;20097;-78
2021/03/18 00:15:30;;;;;;;7.50;4.00;;;2.00;99.90;;;;;;5026766;28;20094;-78
2021/03/18 00:17:56;;;;;;;7.13;3.92;;;2.00;99.90;;;;;;5017983;28;20102;-78
2021/03/18 00:20:22;;;;;;;5.47;3.80;;;1.90;99.90;;;;;;5023205;28;20173;-78
2021/03/18 00:22:48;;;;;;;5.78;3.33;;;1.90;99.90;;;;;;5027616;28;20181;-78
2021/03/18 00:25:16;;;;;;;7.03;3.67;;;2.00;99.90;;;;;;5017807;28;20526;-77
2021/03/18 00:27:43;;;;;;;5.43;3.22;;;1.70;99.90;;;;;;5027332;28;20867;-78
2021/03/18 00:30:11;;;;;;;8.60;4.05;;;1.40;99.90;;;;;;5023297;28;21708;-78
2021/03/18 00:32:39;;;;;;;4.60;3.60;;;1.10;99.90;;;;;;5026552;28;20546;-77
2021/03/18 00:35:10;;;;;;;8.35;4.35;;;1.00;99.90;;;;;;5040333;28;20728;-77
2021/03/18 00:37:38;;;;;;;5.47;4.00;;;0.90;99.90;;;;;;5025544;28;20133;-78
2021/03/18 00:40:22;;;;;;;8.75;4.40;;;0.80;99.90;;;;;;5023448;28;20101;-77
2021/03/18 00:42:48;;;;;;;6.55;4.28;;;1.00;99.90;;;;;;5021652;28;20100;-77
2021/03/18 00:45:14;;;;;;;5.10;3.53;;;1.00;99.90;;;;;;5019510;28;20098;-77
2021/03/18 00:47:40;;;;;;;10.05;4.47;;;1.00;99.90;;;;;;5023073;28;20139;-78
2021/03/18 00:50:07;;;;;;;8.73;4.47;;;0.80;99.90;;;;;;5023730;28;20527;-78
2021/03/18 00:52:32;;;;;;;6.50;3.83;;;0.70;99.90;;;;;;5020777;28;20092;-78
2021/03/18 00:54:58;;;;;;;9.70;4.35;;;0.80;99.90;;;;;;5023149;28;20093;-78
2021/03/18 00:57:23;;;;;;;5.55;3.78;;;0.80;99.90;;;;;;5017447;28;20108;-77
2021/03/18 00:59:49;;;;;;;5.97;4.18;;;0.70;99.90;;;;;;5019495;28;20102;-77
2021/03/18 01:02:16;;;;;;;4.88;3.47;;;0.80;99.90;;;;;;5027283;28;20534;-77
2021/03/18 01:04:43;;;;;;;7.47;4.10;;;1.00;99.90;;;;;;5017014;28;20102;-77
2021/03/18 01:07:09;;;;;;;9.57;4.28;;;1.00;99.90;;;;;;5023892;28;20652;-76
2021/03/18 01:09:35;;;;;;;5.95;4.60;;;1.00;99.90;;;;;;5020996;28;20093;-78
2021/03/18 01:12:01;;;;;;;5.45;3.85;;;1.10;99.90;;;;;;5018643;28;20079;-78
2021/03/18 01:14:26;;;;;;;6.90;3.90;;;1.00;99.90;;;;;;5018200;28;20479;-77
2021/03/18 01:16:52;;;;;;;9.13;4.03;;;0.80;99.90;;;;;;5031432;28;20117;-77
2021/03/18 01:19:22;;;;;;;5.85;4.50;;;0.70;99.90;;;;;;5026565;28;20148;-78
2021/03/18 01:21:52;;;;;;;5.57;3.60;;;0.60;99.90;;;;;;5025387;28;20080;-77
2021/03/18 01:24:17;;;;;;;6.20;4.32;;;0.60;99.90;;;;;;5019353;28;20093;-77
2021/03/18 01:26:44;;;;;;;7.90;4.32;;;0.70;99.90;;;;;;5021427;28;20081;-77
2021/03/18 01:29:11;;;;;;;6.35;4.18;;;0.60;99.90;;;;;;5023342;28;20112;-78
2021/03/18 01:31:37;;;;;;;6.57;3.90;;;0.40;99.90;;;;;;5022789;28;20078;-77
2021/03/18 01:34:03;;;;;;;5.00;3.85;;;0.40;99.90;;;;;;5020644;28;20590;-78
2021/03/18 01:36:31;;;;;;;6.43;4.05;;;0.40;99.90;;;;;;5024050;28;20077;-78
2021/03/18 01:38:57;;;;;;;9.82;5.40;;;0.60;99.90;;;;;;5021881;28;20101;-77
2021/03/18 01:41:24;;;;;;;27.45;12.18;;;0.70;99.90;;;;;;5025863;28;20081;-78
2021/03/18 01:43:50;;;;;;;61.25;24.50;;;0.50;99.90;;;;;;5020076;28;20090;-78
2021/03/18 01:46:17;;;;;;;63.00;23.20;;;0.50;99.90;;;;;;5021591;28;20074;-77
2021/03/18 01:48:43;;;;;;;57.45;21.60;;;0.50;99.90;;;;;;5023240;28;20802;-77
2021/03/18 01:51:09;;;;;;;20.05;8.48;;;0.60;99.90;;;;;;5027302;28;20124;-77
2021/03/18 01:53:35;;;;;;;11.93;4.97;;;0.60;99.90;;;;;;5026316;28;20078;-76
2021/03/18 01:56:03;;;;;;;21.05;8.57;;;0.50;99.90;;;;;;5024935;28;20089;-77
2021/03/18 01:58:30;;;;;;;97.55;35.10;;;0.30;99.90;;;;;;5023426;28;20090;-77
2021/03/18 02:01:00;;;;;;;56.65;21.30;;;0.40;99.90;;;;;;5022772;28;20090;-77
2021/03/18 02:03:26;;;;;;;26.05;10.55;;;0.50;99.90;;;;;;5019687;28;20643;-78
2021/03/18 02:05:52;;;;;;;25.58;10.48;;;0.70;99.90;;;;;;5024133;28;20153;-78
2021/03/18 02:08:17;;;;;;;10.93;5.22;;;0.80;99.90;;;;;;5020669;28;20225;-78
2021/03/18 02:10:43;;;;;;;7.10;4.57;;;0.70;99.90;;;;;;5024875;28;20545;-78
2021/03/18 02:13:11;;;;;;;8.02;4.03;;;0.80;99.90;;;;;;5026656;28;20167;-78
2021/03/18 02:15:47;;;;;;;6.72;4.10;;;0.80;99.90;;;;;;5019417;28;20116;-78
2021/03/18 02:18:24;;;;;;;7.00;4.50;;;0.70;99.90;;;;;;5022892;28;20973;-78
2021/03/18 02:21:40;;;;;;;9.15;5.00;;;0.60;99.90;;;;;;5018199;28;20092;-77
2021/03/18 02:24:18;;;;;;;9.45;4.93;;;0.50;99.90;;;;;;5021972;28;20110;-77
2021/03/18 02:27:21;;;;;;;10.65;5.03;;;0.60;99.90;;;;;;5025416;28;20080;-77
2021/03/18 02:30:14;;;;;;;10.50;5.85;;;0.70;99.90;;;;;;5019569;28;20456;-77
2021/03/18 02:33:13;;;;;;;10.25;5.32;;;0.70;99.90;;;;;;5024011;28;20597;-77
2021/03/18 02:35:47;;;;;;;12.32;5.90;;;0.50;99.90;;;;;;5031154;28;20082;-78
2021/03/18 02:38:27;;;;;;;8.95;4.80;;;0.60;99.90;;;;;;5023974;28;20135;-78
2021/03/18 02:41:06;;;;;;;10.40;5.70;;;0.50;99.90;;;;;;5016510;28;20081;-77
2021/03/18 02:43:40;;;;;;;8.27;5.43;;;0.50;99.90;;;;;;5011398;28;20181;-78
2021/03/18 02:46:06;;;;;;;9.98;5.07;;;0.70;99.90;;;;;;5025422;28;20105;-78
2021/03/18 02:48:36;;;;;;;8.70;4.97;;;0.70;99.90;;;;;;5025805;28;20109;-78
2021/03/18 02:51:03;;;;;;;9.07;5.15;;;0.50;99.90;;;;;;5024456;28;20078;-77
2021/03/18 02:53:31;;;;;;;9.38;4.93;;;0.50;99.90;;;;;;5020390;28;20570;-77
2021/03/18 02:56:00;;;;;;;10.75;5.80;;;0.30;99.90;;;;;;5014529;28;20111;-77
2021/03/18 02:58:29;;;;;;;10.15;5.57;;;0.30;99.90;;;;;;5019232;28;20570;-77
2021/03/18 03:00:57;;;;;;;9.38;5.20;;;0.40;99.90;;;;;;5038771;28;20832;-76
2021/03/18 03:03:24;;;;;;;12.38;5.57;;;0.40;99.90;;;;;;5025315;28;20105;-79
2021/03/18 03:05:53;;;;;;;10.60;6.25;;;0.40;99.90;;;;;;5028784;28;20558;-77
2021/03/18 03:08:19;;;;;;;7.85;5.25;;;0.40;99.90;;;;;;5027334;28;20881;-77
2021/03/18 03:10:46;;;;;;;9.18;5.47;;;0.40;99.90;;;;;;5030055;28;20070;-76
2021/03/18 03:13:13;;;;;;;8.20;6.00;;;0.40;99.90;;;;;;5037781;28;20077;-77
2021/03/18 03:15:39;;;;;;;12.98;5.65;;;0.40;99.90;;;;;;5029952;28;20081;-78
2021/03/18 03:18:10;;;;;;;9.52;5.90;;;0.40;99.90;;;;;;5031260;28;20457;-78
2021/03/18 03:20:37;;;;;;;10.25;5.88;;;0.50;99.90;;;;;;5022115;28;20089;-77
2021/03/18 03:23:06;;;;;;;10.45;5.88;;;0.40;99.90;;;;;;5026667;28;20184;-77
2021/03/18 03:25:33;;;;;;;10.90;5.70;;;0.30;99.90;;;;;;5022280;28;20165;-77
2021/03/18 03:28:01;;;;;;;9.63;6.47;;;0.30;99.90;;;;;;5027236;28;20174;-78
2021/03/18 03:30:27;;;;;;;10.30;6.03;;;0.40;99.90;;;;;;5024546;28;20077;-78
2021/03/18 03:32:52;;;;;;;12.98;6.32;;;0.50;99.90;;;;;;5027469;28;20086;-79
2021/03/18 03:35:20;;;;;;;11.90;5.10;;;0.60;99.90;;;;;;5016364;28;20087;-78
2021/03/18 03:37:46;;;;;;;12.75;6.43;;;0.60;99.90;;;;;;5027862;28;20078;-78
2021/03/18 03:40:14;;;;;;;11.27;6.15;;;0.60;99.90;;;;;;5027930;28;20082;-79
2021/03/18 03:42:40;;;;;;;11.57;6.05;;;0.50;99.90;;;;;;5022241;28;20098;-78
2021/03/18 03:45:13;;;;;;;12.32;7.22;;;0.60;99.90;;;;;;5023217;28;20074;-78
2021/03/18 03:47:39;;;;;;;13.15;6.30;;;0.60;99.90;;;;;;5024792;28;20121;-79
2021/03/18 03:50:09;;;;;;;14.48;7.85;;;0.40;99.90;;;;;;5030293;28;20161;-78
2021/03/18 03:52:51;;;;;;;12.43;7.35;;;0.40;99.90;;;;;;5022516;28;20077;-78
2021/03/18 03:55:48;;;;;;;12.77;6.72;;;0.20;99.90;;;;;;5025356;28;20070;-77
2021/03/18 03:58:28;;;;;;;12.07;8.07;;;0.20;99.90;;;;;;5009754;28;20581;-78
2021/03/18 04:00:58;;;;;;;15.18;7.47;;;0.30;99.90;;;;;;5022711;28;20153;-77
2021/03/18 04:03:25;;;;;;;16.08;7.32;;;0.50;99.90;;;;;;5027004;28;20181;-77
2021/03/18 04:05:56;;;;;;;12.90;7.20;;;0.70;99.90;;;;;;5026811;28;20074;-79
2021/03/18 04:08:24;;;;;;;15.88;7.85;;;0.70;99.90;;;;;;5023753;28;20097;-78
2021/03/18 04:10:51;;;;;;;16.33;7.50;;;0.70;99.90;;;;;;5027620;28;20081;-78
2021/03/18 04:13:17;;;;;;;23.38;9.48;;;0.70;99.90;;;;;;5023267;28;20085;-80
2021/03/18 04:15:44;;;;;;;18.25;9.27;;;0.60;99.90;;;;;;5017834;28;20542;-79
2021/03/18 04:18:11;;;;;;;18.80;8.82;;;0.50;99.90;;;;;;5025335;28;20566;-77
2021/03/18 04:20:38;;;;;;;18.30;8.25;;;0.40;99.90;;;;;;5020241;28;20081;-76
2021/03/18 04:23:08;;;;;;;17.75;8.60;;;0.30;99.90;;;;;;5019287;28;20100;-77
2021/03/18 04:25:35;;;;;;;19.15;8.35;;;0.20;99.90;;;;;;5018455;28;20062;-77
2021/03/18 04:28:02;;;;;;;18.10;8.18;;;0.20;99.90;;;;;;5026792;28;20154;-78
2021/03/18 04:30:29;;;;;;;19.63;10.73;;;0.30;99.90;;;;;;5027320;28;20151;-77
2021/03/18 04:32:56;;;;;;;13.63;8.43;;;0.20;99.90;;;;;;5027973;28;20078;-77
2021/03/18 04:35:22;;;;;;;20.52;10.00;;;0.20;99.90;;;;;;5026771;28;20157;-77
2021/03/18 04:37:48;;;;;;;21.60;9.20;;;0.20;99.90;;;;;;5026274;28;20105;-77
2021/03/18 04:40:16;;;;;;;16.58;9.23;;;0.10;99.90;;;;;;5024752;28;20457;-77
2021/03/18 04:42:42;;;;;;;19.30;9.77;;;0.20;99.90;;;;;;5024693;28;20493;-77
2021/03/18 04:45:10;;;;;;;17.90;10.57;;;0.20;99.90;;;;;;5024803;28;20074;-76
2021/03/18 04:47:38;;;;;;;19.38;10.50;;;0.30;99.90;;;;;;5024080;28;20069;-77
2021/03/18 04:50:05;;;;;;;16.90;8.30;;;0.30;99.90;;;;;;5016737;28;20133;-77
2021/03/18 04:52:31;;;;;;;21.70;10.18;;;0.20;99.90;;;;;;5027515;28;20100;-76
2021/03/18 04:54:57;;;;;;;20.08;9.70;;;0.10;99.90;;;;;;5019602;28;20074;-78
2021/03/18 04:57:24;;;;;;;19.02;10.35;;;0.30;99.90;;;;;;5020558;28;20086;-76
2021/03/18 04:59:51;;;;;;;18.63;10.45;;;0.20;99.90;;;;;;5026273;28;20133;-77
2021/03/18 05:02:18;;;;;;;24.67;12.13;;;0.10;99.90;;;;;;5025291;28;20074;-77
2021/03/18 05:04:45;;;;;;;19.20;11.48;;;0.00;99.90;;;;;;5024350;28;20111;-76
2021/03/18 05:07:13;;;;;;;17.20;9.88;;;0.00;99.90;;;;;;5023089;28;20073;-76
2021/03/18 05:09:40;;;;;;;26.88;10.85;;;0.00;99.90;;;;;;5022097;28;20108;-77
2021/03/18 05:12:08;;;;;;;20.77;10.10;;;0.00;99.90;;;;;;5019773;28;20106;-77
2021/03/18 05:14:34;;;;;;;22.83;12.55;;;0.00;99.90;;;;;;5037897;28;20092;-77
2021/03/18 05:17:00;;;;;;;21.27;10.75;;;-0.10;99.90;;;;;;5031604;28;20082;-77
2021/03/18 05:19:26;;;;;;;22.40;11.40;;;0.00;99.90;;;;;;5021036;28;20629;-77
2021/03/18 05:21:52;;;;;;;21.23;10.68;;;0.10;99.90;;;;;;5015024;28;20173;-77
2021/03/18 05:24:18;;;;;;;21.83;11.90;;;0.00;99.90;;;;;;5023964;28;20090;-76
2021/03/18 05:26:45;;;;;;;21.40;12.07;;;0.00;99.90;;;;;;5023476;28;20089;-77
2021/03/18 05:29:13;;;;;;;21.65;12.10;;;-0.10;99.90;;;;;;5023987;28;20093;-77
2021/03/18 05:31:40;;;;;;;25.25;12.20;;;0.00;99.90;;;;;;5040263;28;20120;-77
2021/03/18 05:34:05;;;;;;;21.25;11.98;;;0.10;99.90;;;;;;5017163;28;20082;-77
2021/03/18 05:36:31;;;;;;;22.70;11.88;;;0.10;99.90;;;;;;5025276;28;20505;-76
2021/03/18 05:38:57;;;;;;;19.02;10.25;;;-0.10;99.90;;;;;;5025883;28;20094;-76
2021/03/18 05:41:23;;;;;;;20.42;10.93;;;-0.10;99.90;;;;;;5020870;28;20224;-76
2021/03/18 05:43:49;;;;;;;26.05;12.02;;;-0.10;99.90;;;;;;5024416;28;20528;-77
2021/03/18 05:46:16;;;;;;;21.13;12.20;;;-0.10;99.90;;;;;;5022821;28;20502;-76
2021/03/18 05:48:45;;;;;;;25.17;12.27;;;-0.20;99.90;;;;;;5024725;28;20096;-77
2021/03/18 05:51:16;;;;;;;22.70;12.07;;;0.00;99.90;;;;;;5012541;28;20078;-76
2021/03/18 05:53:52;;;;;;;28.30;13.35;;;0.00;99.90;;;;;;5024816;28;20132;-76
2021/03/18 05:56:22;;;;;;;24.48;13.35;;;-0.10;99.90;;;;;;5022533;28;20604;-76
2021/03/18 05:58:51;;;;;;;27.52;12.13;;;-0.10;99.90;;;;;;5021117;28;20094;-76
2021/03/18 06:01:18;;;;;;;20.45;11.68;;;-0.10;99.90;;;;;;5024640;28;20082;-76
2021/03/18 06:03:45;;;;;;;23.42;12.25;;;-0.10;99.90;;;;;;5031684;28;20193;-77
2021/03/18 06:06:12;;;;;;;25.40;12.15;;;-0.10;99.90;;;;;;5017601;28;20181;-76
2021/03/18 06:08:38;;;;;;;26.25;14.02;;;-0.10;99.90;;;;;;5025479;28;20124;-77
2021/03/18 06:11:05;;;;;;;30.23;14.48;;;-0.10;99.90;;;;;;5028721;28;20112;-77
2021/03/18 06:13:32;;;;;;;25.88;14.60;;;-0.10;99.90;;;;;;5028251;28;20074;-76
2021/03/18 06:15:58;;;;;;;25.83;12.85;;;-0.10;99.90;;;;;;5025442;28;20135;-75
2021/03/18 06:18:24;;;;;;;25.83;13.55;;;-0.10;99.90;;;;;;5020571;28;20097;-77
2021/03/18 06:20:51;;;;;;;23.05;12.05;;;-0.10;99.90;;;;;;5025537;28;20505;-76
2021/03/18 06:23:18;;;;;;;21.80;12.40;;;0.00;99.90;;;;;;5022515;28;20151;-76
2021/03/18 06:25:45;;;;;;;42.30;17.90;;;0.10;99.90;;;;;;5017759;28;20090;-76
2021/03/18 06:28:21;;;;;;;24.90;12.75;;;0.00;99.90;;;;;;5026327;28;20097;-77
2021/03/18 06:31:07;;;;;;;22.90;11.82;;;0.00;99.90;;;;;;5024155;28;20081;-77
2021/03/18 06:33:43;;;;;;;26.88;13.20;;;0.20;99.90;;;;;;5023458;28;21076;-76
2021/03/18 06:36:22;;;;;;;26.17;12.48;;;0.20;99.90;;;;;;5020476;28;20176;-75
2021/03/18 06:39:00;;;;;;;27.13;13.35;;;0.20;99.90;;;;;;5022597;28;20098;-75
2021/03/18 06:41:37;;;;;;;22.80;11.77;;;0.10;99.90;;;;;;5023260;28;20074;-77
2021/03/18 06:44:24;;;;;;;21.13;12.57;;;0.20;99.90;;;;;;5026307;28;20120;-75
2021/03/18 06:46:55;;;;;;;25.45;13.65;;;0.00;99.90;;;;;;5025453;28;20097;-76
2021/03/18 06:49:23;;;;;;;24.38;12.45;;;-0.10;99.90;;;;;;5028094;28;20688;-76
2021/03/18 06:52:05;;;;;;;27.92;13.10;;;-0.10;99.90;;;;;;5037859;28;20077;-77
2021/03/18 06:54:42;;;;;;;24.02;12.77;;;0.00;99.90;;;;;;5004135;28;20829;-76
2021/03/18 06:57:09;;;;;;;30.38;14.05;;;0.10;99.90;;;;;;5003047;28;20109;-76
2021/03/18 06:59:37;;;;;;;24.15;12.77;;;-0.10;99.90;;;;;;5026311;28;20098;-76
2021/03/18 07:02:19;;;;;;;21.20;12.23;;;0.00;99.90;;;;;;5024153;28;20101;-76
2021/03/18 07:04:50;;;;;;;23.10;12.32;;;0.20;99.90;;;;;;5026181;28;20075;-77
2021/03/18 07:07:18;;;;;;;22.83;12.43;;;0.10;99.90;;;;;;5041134;28;20145;-76
2021/03/18 07:09:48;;;;;;;25.02;13.68;;;0.10;99.90;;;;;;5022792;28;21154;-76
2021/03/18 07:12:16;;;;;;;23.15;12.23;;;0.20;99.90;;;;;;5024750;28;20165;-76
2021/03/18 07:14:49;;;;;;;24.00;13.25;;;0.20;99.90;;;;;;5048806;28;20082;-75
2021/03/18 07:17:27;;;;;;;28.88;14.65;;;0.30;99.90;;;;;;5022380;28;20074;-76
2021/03/18 07:20:08;;;;;;;26.08;12.80;;;0.50;99.90;;;;;;5024572;28;20093;-76
2021/03/18 07:22:41;;;;;;;25.88;14.38;;;0.40;99.90;;;;;;5026153;28;20438;-76
2021/03/18 07:25:09;;;;;;;24.85;12.38;;;0.40;99.90;;;;;;5020487;28;20085;-76
2021/03/18 07:27:40;;;;;;;22.65;12.15;;;0.40;99.90;;;;;;5022493;28;20078;-74
2021/03/18 07:30:07;;;;;;;24.38;13.85;;;0.40;99.90;;;;;;5024868;28;20207;-76
2021/03/18 07:32:33;;;;;;;21.90;12.15;;;0.20;99.90;;;;;;5027040;28;20850;-76
2021/03/18 07:34:59;;;;;;;24.17;13.73;;;0.20;99.90;;;;;;5022442;28;20153;-74
2021/03/18 07:37:25;;;;;;;25.17;14.45;;;0.30;99.90;;;;;;5025079;28;20103;-75
2021/03/18 07:39:50;;;;;;;25.65;12.73;;;0.30;99.90;;;;;;5023739;28;20149;-77
2021/03/18 07:42:17;;;;;;;26.77;14.02;;;0.30;99.90;;;;;;5025269;28;20180;-75
2021/03/18 07:44:45;;;;;;;27.77;14.45;;;0.30;99.90;;;;;;5021795;28;20082;-75
2021/03/18 07:47:12;;;;;;;28.95;12.60;;;0.20;99.90;;;;;;5030417;28;20085;-75
2021/03/18 07:49:48;;;;;;;23.70;13.80;;;0.40;99.90;;;;;;5021481;28;20097;-75
2021/03/18 07:52:27;;;;;;;28.75;15.43;;;0.50;99.90;;;;;;5026815;28;20086;-75
2021/03/18 07:54:56;;;;;;;26.33;14.93;;;0.40;99.90;;;;;;5022046;28;20120;-75
2021/03/18 07:57:23;;;;;;;30.42;18.27;;;0.20;99.90;;;;;;5025969;28;20082;-76
2021/03/18 07:59:48;;;;;;;28.38;16.17;;;0.40;99.90;;;;;;5022619;28;20102;-76
2021/03/18 08:02:17;;;;;;;31.10;16.17;;;0.60;99.90;;;;;;5025550;28;20082;-75
2021/03/18 08:04:45;;;;;;;25.02;14.52;;;0.50;99.90;;;;;;5024325;28;20078;-76
2021/03/18 08:07:11;;;;;;;27.15;13.70;;;0.50;99.90;;;;;;5023181;28;20124;-76
2021/03/18 08:09:36;;;;;;;26.40;14.23;;;0.50;99.90;;;;;;5023120;28;20102;-76
2021/03/18 08:12:02;;;;;;;28.40;14.82;;;0.60;99.90;;;;;;5022996;28;20082;-75
2021/03/18 08:14:28;;;;;;;23.60;13.85;;;0.70;99.90;;;;;;5025798;28;20149;-76
2021/03/18 08:16:54;;;;;;;23.48;13.13;;;0.70;99.90;;;;;;5019711;28;20161;-76
2021/03/18 08:19:20;;;;;;;25.25;14.90;;;0.90;99.90;;;;;;5023554;28;20105;-77
2021/03/18 08:21:53;;;;;;;22.05;13.13;;;0.90;99.90;;;;;;5022962;28;20070;-76
2021/03/18 08:24:25;;;;;;;25.83;14.20;;;0.80;99.90;;;;;;5024333;28;20181;-77
2021/03/18 08:26:57;;;;;;;26.25;16.88;;;0.80;99.90;;;;;;5021023;28;20081;-76
2021/03/18 08:29:39;;;;;;;28.95;16.10;;;0.80;99.90;;;;;;5020867;28;20140;-75
2021/03/18 08:32:08;;;;;;;24.55;13.32;;;0.90;99.90;;;;;;5032454;28;20074;-77
2021/03/18 08:35:06;;;;;;;24.88;13.73;;;1.10;99.90;;;;;;5025272;28;20074;-78
2021/03/18 08:37:41;;;;;;;19.92;11.40;;;1.30;99.90;;;;;;5024122;28;20086;-76
2021/03/18 08:40:08;;;;;;;;;;;1.30;99.90;;;;;;5039673;28;20118;-77
2021/03/18 08:42:37;;;;;;;20.55;11.85;;;1.00;99.90;;;;;;5033579;28;20415;-78
2021/03/18 08:45:31;;;;;;;20.42;12.45;;;1.20;99.90;;;;;;5024861;28;20090;-77
2021/03/18 08:48:08;;;;;;;26.33;14.18;;;1.30;99.90;;;;;;5018132;28;20917;-77
2021/03/18 08:50:34;;;;;;;34.20;16.10;;;1.40;99.90;;;;;;5028713;28;20599;-76
2021/03/18 08:53:04;;;;;;;20.02;12.27;;;1.40;99.90;;;;;;5027611;28;20086;-77
2021/03/18 08:55:42;;;;;;;24.98;13.32;;;1.30;99.90;;;;;;5040060;28;20190;-78
2021/03/18 08:58:09;;;;;;;20.27;11.07;;;1.40;99.90;;;;;;5021725;28;21720;-77
2021/03/18 09:00:35;;;;;;;20.15;11.18;;;1.40;99.90;;;;;;5023770;28;20084;-77
2021/03/18 09:03:02;;;;;;;21.65;12.38;;;1.50;99.90;;;;;;5021368;28;20090;-77
2021/03/18 09:05:27;;;;;;;17.92;11.73;;;1.60;99.90;;;;;;5019553;28;20078;-77
2021/03/18 09:07:56;;;;;;;16.45;11.00;;;1.60;99.90;;;;;;5036056;28;20109;-76
2021/03/18 09:10:28;;;;;;;20.35;11.45;;;1.40;99.90;;;;;;5019776;28;20070;-77
2021/03/18 09:13:03;;;;;;;21.55;11.95;;;1.40;99.90;;;;;;5021882;28;20224;-77
2021/03/18 09:15:38;;;;;;;18.33;11.05;;;1.60;99.90;;;;;;5022135;28;20081;-76
2021/03/18 09:18:19;;;;;;;23.65;12.82;;;1.70;99.90;;;;;;5018642;28;20848;-77
2021/03/18 09:20:59;;;;;;;25.42;13.60;;;1.80;99.90;;;;;;5026707;28;20073;-78
2021/03/18 09:23:27;;;;;;;29.85;13.23;;;1.90;99.90;;;;;;5023338;28;20453;-77
2021/03/18 09:25:57;;;;;;;20.27;12.38;;;1.90;99.90;;;;;;5025302;28;20083;-78
2021/03/18 09:28:23;;;;;;;23.15;12.85;;;1.90;99.90;;;;;;5019772;28;20101;-78
2021/03/18 09:30:49;;;;;;;19.50;11.68;;;2.00;99.90;;;;;;5015515;28;20080;-80
2021/03/18 09:33:44;;;;;;;21.38;13.00;;;2.30;99.90;;;;;;5026045;28;20085;-78
2021/03/18 09:36:19;;;;;;;21.13;11.70;;;2.40;99.90;;;;;;5019558;28;20496;-79
2021/03/18 09:39:05;;;;;;;18.92;12.00;;;2.40;99.90;;;;;;5023276;28;20089;-77
2021/03/18 09:41:38;;;;;;;16.58;9.93;;;2.60;99.90;;;;;;5019666;28;20156;-79
2021/03/18 09:44:07;;;;;;;19.73;12.18;;;2.40;99.90;;;;;;5019778;28;20125;-77
2021/03/18 09:46:33;;;;;;;18.10;11.23;;;2.40;99.90;;;;;;5037909;28;20084;-79
2021/03/18 09:48:59;;;;;;;21.13;11.23;;;2.50;99.90;;;;;;5029246;28;20089;-78
2021/03/18 09:51:25;;;;;;;20.55;11.95;;;2.50;99.90;;;;;;5025276;28;20761;-78
2021/03/18 09:54:05;;;;;;;21.85;13.00;;;2.50;99.90;;;;;;5025375;28;20697;-78
2021/03/18 09:56:39;;;;;;;20.63;13.00;;;2.50;99.90;;;;;;5024466;28;20089;-79
2021/03/18 09:59:06;;;;;;;19.57;11.40;;;2.50;99.90;;;;;;5027046;28;20184;-80
2021/03/18 10:01:32;;;;;;;18.30;11.10;;;2.50;99.90;;;;;;5022320;28;20387;-79
2021/03/18 10:04:04;;;;;;;20.42;12.00;;;2.60;99.90;;;;;;5022961;28;20089;-79
2021/03/18 10:06:39;;;;;;;19.95;11.55;;;2.60;99.90;;;;;;5041834;28;20105;-79
2021/03/18 10:09:19;;;;;;;18.98;11.07;;;2.70;99.90;;;;;;5024632;28;20108;-79
2021/03/18 10:11:48;;;;;;;22.23;11.50;;;2.70;99.90;;;;;;5027656;28;20081;-79
2021/03/18 10:14:16;;;;;;;17.48;11.73;;;2.70;99.90;;;;;;5025659;28;20431;-79
2021/03/18 10:16:43;;;;;;;22.05;12.10;;;2.70;99.90;;;;;;5028955;28;20079;-78
2021/03/18 10:19:09;;;;;;;16.42;10.05;;;2.90;99.90;;;;;;5028611;28;20093;-79
2021/03/18 10:21:37;;;;;;;19.15;12.25;;;2.90;99.90;;;;;;5029752;28;20140;-78
2021/03/18 10:24:05;;;;;;;12.07;9.38;;;3.00;99.90;;;;;;5031041;28;20094;-79
2021/03/18 10:26:30;;;;;;;10.43;6.60;;;2.90;99.90;;;;;;5029207;28;20088;-77
2021/03/18 10:29:00;;;;;;;13.35;5.40;;;2.80;99.90;;;;;;5028420;28;20094;-78
2021/03/18 10:31:27;;;;;;;7.85;4.90;;;2.70;99.90;;;;;;5033290;28;20062;-78
2021/03/18 10:33:52;;;;;;;9.32;5.60;;;2.80;99.90;;;;;;5030917;28;20180;-79
2021/03/18 10:36:38;;;;;;;7.95;5.57;;;2.90;99.90;;;;;;5027316;28;20693;-79
2021/03/18 10:39:07;;;;;;;12.02;7.28;;;3.00;99.90;;;;;;5043021;28;20093;-78
2021/03/18 10:41:33;;;;;;;11.35;6.32;;;2.90;99.90;;;;;;5025669;28;20088;-79
2021/03/18 10:43:59;;;;;;;10.98;7.93;;;2.70;99.90;;;;;;5023824;28;20152;-79
2021/03/18 10:46:30;;;;;;;10.07;6.68;;;2.80;99.90;;;;;;5029273;28;20067;-77
2021/03/18 10:48:57;;;;;;;10.55;7.60;;;2.80;99.90;;;;;;5026974;28;20089;-78
2021/03/18 10:51:23;;;;;;;11.75;6.88;;;2.80;99.90;;;;;;5028796;28;20074;-77
2021/03/18 10:53:50;;;;;;;11.63;7.40;;;2.80;99.90;;;;;;5023532;28;20093;-79
2021/03/18 10:56:24;;;;;;;21.88;11.57;;;3.00;99.90;;;;;;5029662;28;20082;-77
2021/03/18 10:58:51;;;;;;;15.27;9.07;;;2.90;99.90;;;;;;5027554;28;20136;-79
2021/03/18 11:01:25;;;;;;;14.80;8.10;;;2.90;99.90;;;;;;5026014;28;20093;-78
2021/03/18 11:04:00;;;;;;;35.67;15.55;;;2.90;99.90;;;;;;5028133;28;20100;-77
2021/03/18 11:06:26;;;;;;;21.80;10.25;;;3.00;99.90;;;;;;5028301;28;20081;-78
2021/03/18 11:08:53;;;;;;;14.80;9.25;;;3.00;99.90;;;;;;5026112;28;20617;-78
2021/03/18 11:11:21;;;;;;;13.38;7.80;;;2.90;99.90;;;;;;5029483;28;20105;-78
2021/03/18 11:13:47;;;;;;;13.13;6.63;;;2.90;99.90;;;;;;5042742;28;20514;-78
2021/03/18 11:16:23;;;;;;;9.63;6.50;;;2.90;99.90;;;;;;5028251;28;20086;-78
2021/03/18 11:18:54;;;;;;;11.70;5.97;;;3.00;99.90;;;;;;5022838;28;20125;-79
2021/03/18 11:21:34;;;;;;;9.27;6.07;;;3.10;99.90;;;;;;5027355;28;20078;-78
2021/03/18 11:24:16;;;;;;;11.60;7.00;;;3.20;99.90;;;;;;5025908;28;20085;-78
2021/03/18 11:26:51;;;;;;;10.48;5.90;;;3.10;99.90;;;;;;5023877;28;20139;-80
2021/03/18 11:29:19;;;;;;;10.82;6.40;;;3.10;99.90;;;;;;5041004;28;20184;-78
2021/03/18 11:31:57;;;;;;;10.63;5.53;;;3.10;99.90;;;;;;5030110;28;20078;-80
2021/03/18 11:34:26;;;;;;;7.65;4.95;;;3.00;99.90;;;;;;5035526;28;20097;-79
2021/03/18 11:36:54;;;;;;;8.65;5.13;;;3.00;99.90;;;;;;5029024;28;20101;-76
2021/03/18 11:39:21;;;;;;;9.85;5.70;;;2.80;99.90;;;;;;5024241;28;20100;-76
2021/03/18 11:41:48;;;;;;;8.82;5.80;;;2.70;99.90;;;;;;5021051;28;20086;-76
2021/03/18 11:44:14;;;;;;;8.40;6.22;;;2.60;99.90;;;;;;5022204;28;20465;-78
2021/03/18 11:46:41;;;;;;;9.75;5.50;;;2.60;99.90;;;;;;5030109;28;20096;-77
2021/03/18 11:49:06;;;;;;;7.88;5.57;;;2.50;99.90;;;;;;5021016;28;20089;-77
2021/03/18 11:51:32;;;;;;;7.50;4.57;;;2.60;99.90;;;;;;5022905;28;20078;-78
2021/03/18 11:53:58;;;;;;;7.63;5.15;;;2.50;99.90;;;;;;5024239;28;20086;-79
2021/03/18 11:56:23;;;;;;;8.07;4.95;;;2.50;99.90;;;;;;5043086;28;20824;-78
2021/03/18 11:58:49;;;;;;;7.95;5.18;;;2.60;99.90;;;;;;5021279;28;20097;-78
2021/03/18 12:01:15;;;;;;;8.65;5.07;;;2.70;99.90;;;;;;5020483;28;20075;-77
2021/03/18 12:03:41;;;;;;;8.02;5.28;;;3.00;99.90;;;;;;5029079;28;20114;-77
2021/03/18 12:06:06;;;;;;;10.30;5.97;;;3.00;99.90;;;;;;5029649;28;20117;-77
2021/03/18 12:08:32;;;;;;;7.93;4.85;;;3.20;99.90;;;;;;5028475;28;20106;-79
2021/03/18 12:10:58;;;;;;;8.75;5.72;;;3.30;99.90;;;;;;5029883;28;20100;-79
2021/03/18 12:13:23;;;;;;;7.13;4.85;;;3.50;99.90;;;;;;5023825;28;20078;-79
2021/03/18 12:15:49;;;;;;;8.18;4.38;;;3.70;99.90;;;;;;5020195;28;20546;-79
2021/03/18 12:18:15;;;;;;;6.85;4.35;;;3.70;99.90;;;;;;5027407;28;20132;-78
2021/03/18 12:20:40;;;;;;;7.18;4.60;;;3.80;99.90;;;;;;5025974;28;20179;-78
2021/03/18 12:23:06;;;;;;;6.03;4.00;;;3.90;99.90;;;;;;5043948;28;21028;-77
2021/03/18 12:25:32;;;;;;;6.72;3.95;;;3.90;99.90;;;;;;5030397;28;20167;-78
2021/03/18 12:27:57;;;;;;;9.20;4.15;;;3.80;99.90;;;;;;5028606;28;20101;-78
2021/03/18 12:30:24;;;;;;;5.15;3.55;;;3.70;99.90;;;;;;5034141;28;20554;-81
2021/03/18 12:32:51;;;;;;;7.75;3.55;;;3.80;99.90;;;;;;5028860;28;20081;-81
2021/03/18 12:35:19;;;;;;;5.97;3.58;;;3.50;99.90;;;;;;5029020;28;20165;-78
2021/03/18 12:37:50;;;;;;;6.32;3.47;;;3.90;99.90;;;;;;5029738;28;20542;-78
2021/03/18 12:40:17;;;;;;;5.22;3.33;;;4.10;99.90;;;;;;5026111;28;20125;-77
2021/03/18 12:42:43;;;;;;;4.68;2.95;;;4.10;99.90;;;;;;5028075;28;20082;-79
2021/03/18 12:45:12;;;;;;;3.75;2.80;;;4.20;99.90;;;;;;5029850;28;20173;-79
2021/03/18 12:47:38;;;;;;;4.35;2.90;;;4.30;99.90;;;;;;5023706;28;20085;-78
2021/03/18 12:50:07;;;;;;;5.38;3.72;;;4.30;99.90;;;;;;5022073;28;20601;-78
2021/03/18 12:52:33;;;;;;;5.20;3.13;;;4.40;99.90;;;;;;5027337;28;20108;-77
2021/03/18 12:54:58;;;;;;;5.90;3.63;;;4.30;99.90;;;;;;5023238;28;20110;-78
2021/03/18 12:57:24;;;;;;;6.22;4.50;;;4.40;99.90;;;;;;5027273;28;20081;-79